createdAt,value
2019-03-25T00:01:06.906Z,18.47
2019-03-25T00:03:36.378Z,17.43
2019-03-25T00:06:05.922Z,19.57
2019-03-25T00:08:35.308Z,23.02
2019-03-25T00:11:05.265Z,19.07
2019-03-25T00:13:35.243Z,18.82
2019-03-25T00:16:05.793Z,20.17
2019-03-25T00:18:35.708Z,21.40
2019-03-25T00:21:06.054Z,23.25
2019-03-25T00:23:36.191Z,22.00
2019-03-25T00:26:06.764Z,19.82
2019-03-25T00:28:36.722Z,19.30
2019-03-25T00:31:07.014Z,21.37
2019-03-25T00:33:37.519Z,20.97
2019-03-25T00:36:07.617Z,19.32
2019-03-25T00:38:38.024Z,23.27
2019-03-25T00:41:08.062Z,16.23
2019-03-25T00:43:38.432Z,20.68
2019-03-25T00:46:08.500Z,18.30
2019-03-25T00:48:38.685Z,22.00
2019-03-25T00:51:09.076Z,17.17
2019-03-25T00:53:39.184Z,22.85
2019-03-25T00:56:09.458Z,19.15
2019-03-25T00:58:39.648Z,20.72
2019-03-25T01:01:10.045Z,19.90
2019-03-25T01:03:40.468Z,19.60
2019-03-25T01:06:10.565Z,19.37
2019-03-25T01:08:40.684Z,18.92
2019-03-25T01:11:11.003Z,16.97
2019-03-25T01:13:41.181Z,21.93
2019-03-25T01:16:11.759Z,20.75
2019-03-25T01:18:41.663Z,23.57
2019-03-25T01:21:12.009Z,23.92
2019-03-25T01:23:42.162Z,15.95
2019-03-25T01:26:12.466Z,21.65
2019-03-25T01:28:42.600Z,18.30
2019-03-25T01:31:12.922Z,19.12
2019-03-25T01:33:43.170Z,20.00
2019-03-25T01:36:13.457Z,18.73
2019-03-25T01:38:43.647Z,22.45
2019-03-25T01:41:14.075Z,23.75
2019-03-25T01:43:44.208Z,19.40
2019-03-25T01:46:14.595Z,20.55
2019-03-25T01:48:44.727Z,20.97
2019-03-25T01:51:15.033Z,22.20
2019-03-25T01:53:45.271Z,22.50
2019-03-25T01:56:15.558Z,23.40
2019-03-25T01:58:45.772Z,16.67
2019-03-25T02:01:16.142Z,22.58
2019-03-25T02:03:46.301Z,22.73
2019-03-25T02:06:16.556Z,21.25
2019-03-25T02:08:46.764Z,21.48
2019-03-25T02:11:17.062Z,21.50
2019-03-25T02:13:47.309Z,20.77
2019-03-25T02:16:17.781Z,20.90
2019-03-25T02:18:47.737Z,23.85
2019-03-25T02:21:18.064Z,19.85
2019-03-25T02:23:48.182Z,21.70
2019-03-25T02:26:18.511Z,22.73
2019-03-25T02:28:48.709Z,17.75
2019-03-25T02:31:19.046Z,25.50
2019-03-25T02:33:49.258Z,22.15
2019-03-25T02:36:19.469Z,22.93
2019-03-25T02:38:49.601Z,28.02
2019-03-25T02:41:20.033Z,24.98
2019-03-25T02:43:50.167Z,20.20
2019-03-25T02:46:20.373Z,27.17
2019-03-25T02:48:50.583Z,24.20
2019-03-25T02:51:20.855Z,20.40
2019-03-25T02:53:51.290Z,25.02
2019-03-25T02:56:21.325Z,23.40
2019-03-25T02:58:51.486Z,55.05
2019-03-25T03:01:21.755Z,44.80
2019-03-25T03:03:52.013Z,40.70
2019-03-25T03:06:22.237Z,35.55
2019-03-25T03:08:52.440Z,45.33
2019-03-25T03:11:22.704Z,45.25
2019-03-25T03:13:52.916Z,39.85
2019-03-25T03:16:23.248Z,44.05
2019-03-25T03:18:53.384Z,34.67
2019-03-25T03:21:23.699Z,32.38
2019-03-25T03:23:53.922Z,29.57
2019-03-25T03:26:24.315Z,26.55
2019-03-25T03:28:54.399Z,25.82
2019-03-25T03:31:24.655Z,26.50
2019-03-25T03:33:55.012Z,21.87
2019-03-25T03:36:25.205Z,28.15
2019-03-25T03:38:55.322Z,22.00
2019-03-25T03:41:25.757Z,21.74
2019-03-25T03:43:55.815Z,23.42
2019-03-25T03:46:26.186Z,25.48
2019-03-25T03:48:56.389Z,21.57
2019-03-25T03:51:26.683Z,20.10
2019-03-25T03:53:57.322Z,20.77
2019-03-25T03:56:27.417Z,23.20
2019-03-25T03:58:57.389Z,24.52
2019-03-25T04:01:27.592Z,28.38
2019-03-25T04:03:57.848Z,25.77
2019-03-25T04:06:28.182Z,25.27
2019-03-25T04:08:58.430Z,22.73
2019-03-25T04:11:28.711Z,25.27
2019-03-25T04:13:59.006Z,24.63
2019-03-25T04:16:29.204Z,22.55
2019-03-25T04:18:59.406Z,22.30
2019-03-25T04:21:29.598Z,24.12
2019-03-25T04:23:59.770Z,24.15
2019-03-25T04:26:29.668Z,26.15
2019-03-25T04:28:59.137Z,27.87
2019-03-25T04:31:28.531Z,28.05
2019-03-25T04:33:57.924Z,22.95
2019-03-25T04:36:27.315Z,22.25
2019-03-25T04:38:56.706Z,22.15
2019-03-25T04:41:26.091Z,22.22
2019-03-25T04:43:55.497Z,32.35
2019-03-25T04:46:24.879Z,28.73
2019-03-25T04:48:54.267Z,27.05
2019-03-25T04:51:23.667Z,27.10
2019-03-25T04:53:53.052Z,22.48
2019-03-25T04:56:22.450Z,19.92
2019-03-25T04:58:51.833Z,28.00
2019-03-25T05:01:21.240Z,29.75
2019-03-25T05:03:50.635Z,28.25
2019-03-25T05:06:20.027Z,26.73
2019-03-25T05:08:49.415Z,25.50
2019-03-25T05:11:30.082Z,24.98
2019-03-25T05:13:49.891Z,29.57
2019-03-25T05:16:19.297Z,21.93
2019-03-25T05:18:48.697Z,29.42
2019-03-25T05:21:18.091Z,26.10
2019-03-25T05:23:47.473Z,27.40
2019-03-25T05:26:16.865Z,23.63
2019-03-25T05:28:46.252Z,26.95
2019-03-25T05:31:15.654Z,27.67
2019-03-25T05:33:45.034Z,41.33
2019-03-25T05:36:14.422Z,24.05
2019-03-25T05:38:43.847Z,25.77
2019-03-25T05:41:13.199Z,30.67
2019-03-25T05:43:42.595Z,27.00
2019-03-25T05:46:11.982Z,29.92
2019-03-25T05:48:41.376Z,26.57
2019-03-25T05:51:10.766Z,34.00
2019-03-25T05:53:40.178Z,28.57
2019-03-25T05:56:09.556Z,35.87
2019-03-25T05:58:38.952Z,32.65
2019-03-25T06:01:09.213Z,32.75
2019-03-25T06:03:39.513Z,28.05
2019-03-25T06:06:09.697Z,39.83
2019-03-25T06:08:39.982Z,35.55
2019-03-25T06:11:10.349Z,30.02
2019-03-25T06:13:40.364Z,40.33
2019-03-25T06:16:10.482Z,39.10
2019-03-25T06:18:40.729Z,40.43
2019-03-25T06:21:10.950Z,30.70
2019-03-25T06:23:41.331Z,37.75
2019-03-25T06:26:11.421Z,44.65
2019-03-25T06:28:41.711Z,47.33
2019-03-25T06:31:11.900Z,42.55
2019-03-25T06:33:42.364Z,43.30
2019-03-25T06:36:12.321Z,53.78
2019-03-25T06:38:45.353Z,47.40
2019-03-25T06:41:14.747Z,42.00
2019-03-25T06:43:44.149Z,42.85
2019-03-25T06:46:13.600Z,48.58
2019-03-25T06:48:43.658Z,49.63
2019-03-25T06:51:13.804Z,60.52
2019-03-25T06:53:44.192Z,62.28
2019-03-25T06:56:14.404Z,62.35
2019-03-25T06:58:44.489Z,55.25
2019-03-25T07:01:14.796Z,60.63
2019-03-25T07:03:45.116Z,65.86
2019-03-25T07:06:15.232Z,53.00
2019-03-25T07:08:45.554Z,59.65
2019-03-25T07:11:15.781Z,60.43
2019-03-25T07:13:46.175Z,67.62
2019-03-25T07:16:16.235Z,58.73
2019-03-25T07:18:46.521Z,65.10
2019-03-25T07:21:16.752Z,60.65
2019-03-25T07:23:47.115Z,63.08
2019-03-25T07:26:17.274Z,65.05
2019-03-25T07:28:47.598Z,61.30
2019-03-25T07:31:17.956Z,69.85
2019-03-25T07:33:48.069Z,67.70
2019-03-25T07:36:18.151Z,74.67
2019-03-25T07:38:48.584Z,73.90
2019-03-25T07:41:18.655Z,74.90
2019-03-25T07:43:48.933Z,74.87
2019-03-25T07:46:19.143Z,64.22
2019-03-25T07:48:49.469Z,71.65
2019-03-25T07:51:19.662Z,75.47
2019-03-25T07:53:51.016Z,75.10
2019-03-25T07:56:20.559Z,70.87
2019-03-25T07:58:50.459Z,76.95
2019-03-25T08:01:20.724Z,73.12
2019-03-25T08:03:50.861Z,70.25
2019-03-25T08:06:21.132Z,78.83
2019-03-25T08:08:51.379Z,69.70
2019-03-25T08:11:21.565Z,73.12
2019-03-25T08:13:51.856Z,73.78
2019-03-25T08:16:22.076Z,78.28
2019-03-25T08:18:52.338Z,73.05
2019-03-25T08:21:24.943Z,77.87
2019-03-25T08:23:53.705Z,84.73
2019-03-25T08:26:23.109Z,81.35
2019-03-25T08:28:53.322Z,79.92
2019-03-25T08:31:23.856Z,82.57
2019-03-25T08:33:53.769Z,81.60
2019-03-25T08:36:23.940Z,73.75
2019-03-25T08:38:54.251Z,82.10
2019-03-25T08:41:24.425Z,80.57
2019-03-25T08:43:54.780Z,81.35
2019-03-25T08:46:24.885Z,83.33
2019-03-25T08:48:55.266Z,84.00
2019-03-25T08:51:25.521Z,83.65
2019-03-25T08:53:55.729Z,79.47
2019-03-25T08:56:25.841Z,83.27
2019-03-25T08:58:56.178Z,79.50
2019-03-25T09:01:26.396Z,84.58
2019-03-25T09:03:56.680Z,81.67
2019-03-25T09:06:26.896Z,78.42
2019-03-25T09:08:57.234Z,82.80
2019-03-25T09:11:27.358Z,75.20
2019-03-25T09:13:57.618Z,85.87
2019-03-25T09:16:27.798Z,81.65
2019-03-25T09:18:58.080Z,80.14
2019-03-25T09:21:28.252Z,83.03
2019-03-25T09:23:58.755Z,80.77
2019-03-25T09:26:28.794Z,81.82
2019-03-25T09:28:59.042Z,78.45
2019-03-25T09:31:36.713Z,81.80
2019-03-25T09:34:00.728Z,77.13
2019-03-25T09:36:30.125Z,80.20
2019-03-25T09:38:59.902Z,76.28
2019-03-25T09:41:30.164Z,78.52
2019-03-25T09:44:00.404Z,85.57
2019-03-25T09:46:30.667Z,84.75
2019-03-25T09:49:00.984Z,76.62
2019-03-25T09:51:31.340Z,85.10
2019-03-25T09:54:01.630Z,77.97
2019-03-25T09:56:31.818Z,83.90
2019-03-25T09:59:02.145Z,82.53
2019-03-25T10:01:32.369Z,76.92
2019-03-25T10:04:02.719Z,73.60
2019-03-25T10:06:32.836Z,74.22
2019-03-25T10:09:04.685Z,81.55
2019-03-25T10:11:34.095Z,71.60
2019-03-25T10:14:03.671Z,76.85
2019-03-25T10:16:33.673Z,72.53
2019-03-25T10:19:04.187Z,77.97
2019-03-25T10:21:34.114Z,77.82
2019-03-25T10:24:04.738Z,73.85
2019-03-25T10:26:34.604Z,72.53
2019-03-25T10:29:05.075Z,75.96
2019-03-25T10:31:35.132Z,77.03
2019-03-25T10:34:05.664Z,77.05
2019-03-25T10:36:35.760Z,74.40
2019-03-25T10:39:07.803Z,75.78
2019-03-25T10:41:38.442Z,76.03
2019-03-25T10:44:08.966Z,80.03
2019-03-25T10:46:38.356Z,89.50
2019-03-25T10:49:07.748Z,85.85
2019-03-25T10:51:37.132Z,79.37
2019-03-25T10:54:07.404Z,81.37
2019-03-25T10:56:37.618Z,79.60
2019-03-25T10:59:07.897Z,85.22
2019-03-25T11:01:38.202Z,75.62
2019-03-25T11:04:08.362Z,86.95
2019-03-25T11:06:38.463Z,78.75
2019-03-25T11:09:08.936Z,84.70
2019-03-25T11:11:39.009Z,85.80
2019-03-25T11:14:09.229Z,81.45
2019-03-25T11:16:39.486Z,81.48
2019-03-25T11:19:09.601Z,81.57
2019-03-25T11:21:39.878Z,85.90
2019-03-25T11:24:10.145Z,88.65
2019-03-25T11:26:40.278Z,85.00
2019-03-25T11:29:10.538Z,84.72
2019-03-25T11:31:40.779Z,92.90
2019-03-25T11:34:11.098Z,90.77
2019-03-25T11:36:41.161Z,90.17
2019-03-25T11:39:11.755Z,88.50
2019-03-25T11:41:41.758Z,85.50
2019-03-25T11:44:12.151Z,95.44
2019-03-25T11:46:42.249Z,90.65
2019-03-25T11:49:12.708Z,91.20
2019-03-25T11:51:43.725Z,92.47
2019-03-25T11:54:13.124Z,90.00
2019-03-25T11:56:43.299Z,88.85
2019-03-25T11:59:18.611Z,90.72
2019-03-25T12:01:44.641Z,87.40
2019-03-25T12:04:14.078Z,93.67
2019-03-25T12:06:44.523Z,90.62
2019-03-25T12:09:14.500Z,95.38
2019-03-25T12:11:44.624Z,88.58
2019-03-25T12:14:14.979Z,93.10
2019-03-25T12:16:45.188Z,80.00
2019-03-25T12:19:15.421Z,82.65
2019-03-25T12:21:45.801Z,90.20
2019-03-25T12:24:15.948Z,86.54
2019-03-25T12:26:46.090Z,89.80
2019-03-25T12:29:16.412Z,88.80
2019-03-25T12:31:46.642Z,84.50
2019-03-25T12:34:16.752Z,88.62
2019-03-25T12:36:46.938Z,82.82
2019-03-25T12:39:17.256Z,84.42
2019-03-25T12:41:47.479Z,84.25
2019-03-25T12:44:17.687Z,81.78
2019-03-25T12:46:47.883Z,86.70
2019-03-25T12:49:18.261Z,89.80
2019-03-25T12:51:49.331Z,86.70
2019-03-25T12:54:18.740Z,87.27
2019-03-25T12:56:48.882Z,91.97
2019-03-25T12:59:19.194Z,86.12
2019-03-25T13:01:53.147Z,78.85
2019-03-25T13:04:20.480Z,88.17
2019-03-25T13:06:50.014Z,46.00
2019-03-25T13:09:20.272Z,35.80
2019-03-25T13:11:50.730Z,38.67
2019-03-25T13:14:20.728Z,28.20
2019-03-25T13:16:50.848Z,22.85
2019-03-25T13:19:20.984Z,20.60
2019-03-25T13:21:51.173Z,27.45
2019-03-25T13:24:21.430Z,26.02
2019-03-25T13:26:51.615Z,27.07
2019-03-25T13:29:21.950Z,21.93
2019-03-25T13:31:52.116Z,19.12
2019-03-25T13:34:22.447Z,21.62
2019-03-25T13:36:52.649Z,20.70
2019-03-25T13:39:23.081Z,21.05
2019-03-25T13:41:53.108Z,19.52
2019-03-25T13:44:23.404Z,23.38
2019-03-25T13:46:53.568Z,21.68
2019-03-25T13:49:24.035Z,25.10
2019-03-25T13:51:54.059Z,20.62
2019-03-25T13:54:24.346Z,15.18
2019-03-25T13:56:54.555Z,14.30
2019-03-25T13:59:24.803Z,14.03
2019-03-25T14:01:55.218Z,14.03
2019-03-25T14:04:25.631Z,13.13
2019-03-25T14:06:55.507Z,8.98
2019-03-25T14:09:25.899Z,5.75
2019-03-25T14:11:55.988Z,4.33
2019-03-25T14:14:26.343Z,4.10
2019-03-25T14:16:56.505Z,6.85
2019-03-25T14:19:29.206Z,5.54
2019-03-25T14:21:57.966Z,7.37
2019-03-25T14:24:27.441Z,4.40
2019-03-25T14:26:57.583Z,6.20
2019-03-25T14:29:27.858Z,4.90
2019-03-25T14:31:58.018Z,9.58
2019-03-25T14:34:27.393Z,5.62
2019-03-25T14:36:56.821Z,5.90
2019-03-25T14:39:26.162Z,5.80
2019-03-25T14:41:55.546Z,7.17
2019-03-25T14:44:24.936Z,5.67
2019-03-25T14:46:54.382Z,4.72
2019-03-25T14:49:23.837Z,4.40
2019-03-25T14:51:53.210Z,5.37
2019-03-25T14:54:22.602Z,6.12
2019-03-25T14:56:51.995Z,9.90
2019-03-25T14:59:21.371Z,8.00
2019-03-25T15:01:50.760Z,5.85
2019-03-25T15:04:20.136Z,5.65
2019-03-25T15:06:49.526Z,9.48
2019-03-25T15:09:18.906Z,5.53
2019-03-25T15:11:48.421Z,6.42
2019-03-25T15:14:17.945Z,6.55
2019-03-25T15:16:47.411Z,13.22
2019-03-25T15:19:17.521Z,9.98
2019-03-25T15:21:47.321Z,6.15
2019-03-25T15:24:17.285Z,6.30
2019-03-25T15:26:47.276Z,7.47
2019-03-25T15:29:17.285Z,6.20
2019-03-25T15:31:47.432Z,5.37
2019-03-25T15:34:17.403Z,6.97
2019-03-25T15:36:47.394Z,6.55
2019-03-25T15:39:17.374Z,5.65
2019-03-25T15:41:47.443Z,4.83
2019-03-25T15:44:17.314Z,6.72
2019-03-25T15:46:55.275Z,5.20
2019-03-25T15:49:18.417Z,6.37
2019-03-25T15:51:47.812Z,5.95
2019-03-25T15:54:17.384Z,6.53
2019-03-25T15:56:47.380Z,5.67
2019-03-25T15:59:17.382Z,6.83
2019-03-25T16:01:47.456Z,6.70
2019-03-25T16:04:17.411Z,5.62
2019-03-25T16:06:47.424Z,10.30
2019-03-25T16:09:17.450Z,7.35
2019-03-25T16:11:47.465Z,9.15
2019-03-25T16:14:17.500Z,6.62
2019-03-25T16:16:47.581Z,7.00
2019-03-25T16:19:17.561Z,7.53
2019-03-25T16:21:47.628Z,5.78
2019-03-25T16:24:17.783Z,5.10
2019-03-25T16:26:47.666Z,6.87
2019-03-25T16:29:18.129Z,5.95
2019-03-25T16:31:47.978Z,7.10
2019-03-25T16:34:18.366Z,4.72
2019-03-25T16:36:47.766Z,6.95
2019-03-25T16:39:17.786Z,7.40
2019-03-25T16:41:47.915Z,5.80
2019-03-25T16:44:17.840Z,5.72
2019-03-25T16:46:47.876Z,2.85
2019-03-25T16:49:17.923Z,5.33
2019-03-25T16:51:47.962Z,5.05
2019-03-25T16:54:17.992Z,5.17
2019-03-25T16:56:48.335Z,5.33
2019-03-25T16:59:18.025Z,5.78
2019-03-25T17:01:48.170Z,5.22
2019-03-25T17:04:18.125Z,7.10
2019-03-25T17:06:48.092Z,7.03
2019-03-25T17:09:18.133Z,5.72
2019-03-25T17:11:48.226Z,9.23
2019-03-25T17:14:18.198Z,5.65
2019-03-25T17:16:48.203Z,5.62
2019-03-25T17:19:18.222Z,6.03
2019-03-25T17:21:57.648Z,5.90
2019-03-25T17:24:19.576Z,6.33
2019-03-25T17:26:48.958Z,5.95
2019-03-25T17:29:19.017Z,7.12
2019-03-25T17:31:49.255Z,12.60
2019-03-25T17:34:19.472Z,6.10
2019-03-25T17:36:49.691Z,6.22
2019-03-25T17:39:20.186Z,4.30
2019-03-25T17:41:50.518Z,5.33
2019-03-25T17:44:20.734Z,5.22
2019-03-25T17:46:50.993Z,5.05
2019-03-25T17:49:21.086Z,4.12
2019-03-25T17:51:51.490Z,4.87
2019-03-25T17:54:21.634Z,5.47
2019-03-25T17:56:51.937Z,7.67
2019-03-25T17:59:22.400Z,6.87
2019-03-25T18:01:52.416Z,5.28
2019-03-25T18:04:22.647Z,3.37
2019-03-25T18:06:52.970Z,3.83
2019-03-25T18:09:23.082Z,2.85
2019-03-25T18:11:53.419Z,3.34
2019-03-25T18:14:23.644Z,4.55
2019-03-25T18:16:54.190Z,5.65
2019-03-25T18:19:25.471Z,2.52
2019-03-25T18:21:55.218Z,4.03
2019-03-25T18:24:24.636Z,3.98
2019-03-25T18:26:54.974Z,5.05
2019-03-25T18:29:25.172Z,2.95
2019-03-25T18:31:55.477Z,2.05
2019-03-25T18:34:25.850Z,4.67
2019-03-25T18:36:56.023Z,4.30
2019-03-25T18:39:26.055Z,4.95
2019-03-25T18:41:56.437Z,2.25
2019-03-25T18:44:26.609Z,2.65
2019-03-25T18:46:56.964Z,2.12
2019-03-25T18:49:27.127Z,2.42
2019-03-25T18:51:57.464Z,3.30
2019-03-25T18:54:27.876Z,2.37
2019-03-25T18:56:57.865Z,1.98
2019-03-25T18:59:28.142Z,3.55
2019-03-25T19:01:58.413Z,3.70
2019-03-25T19:04:28.522Z,3.08
2019-03-25T19:06:58.941Z,3.12
2019-03-25T19:09:29.066Z,3.75
2019-03-25T19:11:59.231Z,3.15
2019-03-25T19:14:29.376Z,2.12
2019-03-25T19:16:59.662Z,4.50
2019-03-25T19:19:29.877Z,2.42
2019-03-25T19:22:00.196Z,1.62
2019-03-25T19:24:30.447Z,2.67
2019-03-25T19:27:00.632Z,5.90
2019-03-25T19:29:30.838Z,3.08
2019-03-25T19:32:06.557Z,3.05
2019-03-25T19:34:32.344Z,3.62
2019-03-25T19:37:01.733Z,5.60
2019-03-25T19:39:31.847Z,2.17
2019-03-25T19:42:02.201Z,3.55
2019-03-25T19:44:32.440Z,4.30
2019-03-25T19:47:02.718Z,5.28
2019-03-25T19:49:32.885Z,2.90
2019-03-25T19:52:03.233Z,3.06
2019-03-25T19:54:33.289Z,3.70
2019-03-25T19:57:03.622Z,6.92
2019-03-25T19:59:33.673Z,3.20
2019-03-25T20:02:04.060Z,1.76
2019-03-25T20:04:34.172Z,4.15
2019-03-25T20:07:04.484Z,2.83
2019-03-25T20:09:34.708Z,2.15
2019-03-25T20:12:04.889Z,2.55
2019-03-25T20:14:35.048Z,3.02
2019-03-25T20:17:05.535Z,2.20
2019-03-25T20:19:35.579Z,3.60
2019-03-25T20:22:05.947Z,3.00
2019-03-25T20:24:36.135Z,2.45
2019-03-25T20:27:06.480Z,2.00
2019-03-25T20:29:36.608Z,3.72
2019-03-25T20:32:06.984Z,1.70
2019-03-25T20:34:37.978Z,1.30
2019-03-25T20:37:07.551Z,1.70
2019-03-25T20:39:37.490Z,2.08
2019-03-25T20:42:07.910Z,1.87
2019-03-25T20:44:38.003Z,3.12
2019-03-25T20:47:08.353Z,7.20
2019-03-25T20:49:38.570Z,2.25
2019-03-25T20:52:08.860Z,4.33
2019-03-25T20:54:39.044Z,2.20
2019-03-25T20:57:09.406Z,3.27
2019-03-25T20:59:39.545Z,3.80
2019-03-25T21:02:09.769Z,2.45
2019-03-25T21:04:39.930Z,3.37
2019-03-25T21:07:10.244Z,2.37
2019-03-25T21:09:40.409Z,2.60
2019-03-25T21:12:10.784Z,3.27
2019-03-25T21:14:40.948Z,4.35
2019-03-25T21:17:11.249Z,6.10
2019-03-25T21:19:41.499Z,2.87
2019-03-25T21:22:11.754Z,1.57
2019-03-25T21:24:42.011Z,2.70
2019-03-25T21:27:12.389Z,2.94
2019-03-25T21:29:42.457Z,4.40
2019-03-25T21:32:12.768Z,1.87
2019-03-25T21:34:43.056Z,3.47
2019-03-25T21:37:13.265Z,2.10
2019-03-25T21:39:43.401Z,3.22
2019-03-25T21:42:13.908Z,3.12
2019-03-25T21:44:43.996Z,2.75
2019-03-25T21:47:14.295Z,2.74
2019-03-25T21:49:44.696Z,2.85
2019-03-25T21:52:14.870Z,3.46
2019-03-25T21:54:45.227Z,2.10
2019-03-25T21:57:15.567Z,2.52
2019-03-25T21:59:45.401Z,1.32
2019-03-25T22:02:15.671Z,1.90
2019-03-25T22:04:45.811Z,2.70
2019-03-25T22:07:16.215Z,1.67
2019-03-25T22:09:46.401Z,1.87
2019-03-25T22:12:16.621Z,2.00
2019-03-25T22:14:46.984Z,2.45
2019-03-25T22:17:17.145Z,1.60
2019-03-25T22:19:47.328Z,3.92
2019-03-25T22:22:17.614Z,2.00
2019-03-25T22:24:47.737Z,5.05
2019-03-25T22:27:17.111Z,1.60
2019-03-25T22:29:46.496Z,1.37
2019-03-25T22:32:15.942Z,3.22
2019-03-25T22:34:45.322Z,1.72
2019-03-25T22:37:14.698Z,4.30
2019-03-25T22:39:44.092Z,2.12
2019-03-25T22:42:13.549Z,6.30
2019-03-25T22:44:42.925Z,3.97
2019-03-25T22:47:12.321Z,2.92
2019-03-25T22:49:41.767Z,2.60
2019-03-25T22:52:11.151Z,2.77
2019-03-25T22:54:40.540Z,1.12
2019-03-25T22:57:09.952Z,1.20
2019-03-25T22:59:40.293Z,1.98
2019-03-25T23:02:10.251Z,2.10
2019-03-25T23:04:39.647Z,1.17
2019-03-25T23:07:09.034Z,1.62
2019-03-25T23:09:38.410Z,1.22
2019-03-25T23:12:08.036Z,1.87
2019-03-25T23:14:38.386Z,1.40
2019-03-25T23:17:07.763Z,1.35
2019-03-25T23:19:38.604Z,1.52
2019-03-25T23:22:08.258Z,1.87
2019-03-25T23:24:37.644Z,2.12
2019-03-25T23:27:07.092Z,2.57
2019-03-25T23:29:36.553Z,1.72
2019-03-25T23:32:05.937Z,1.10
2019-03-25T23:34:35.316Z,1.52
2019-03-25T23:37:05.840Z,1.02
2019-03-25T23:39:35.306Z,4.40
2019-03-25T23:42:06.309Z,3.35
2019-03-25T23:44:35.758Z,0.75
2019-03-25T23:47:05.148Z,1.32
2019-03-25T23:49:34.529Z,1.80
2019-03-25T23:52:04.069Z,1.50
2019-03-25T23:54:33.456Z,0.72
2019-03-25T23:57:02.832Z,1.10
2019-03-25T23:59:32.210Z,1.42
